Time;durP1;ratioP1;P1;durP2;ratioP2;P2;SDS_P1;SDS_P2;PMS_P1;PMS_P2;Temp;Humidity;BMP_temperature;BMP_pressure;BME280_temperature;BME280_humidity;BME280_pressure;Samples;Min_cycle;Max_cycle;Signal;HPM_P1;HPM_P2
2021/07/16 10:37:15;;;;;;;16.13;6.32;;;21.10;99.90;;;23.35;65.83;101122.78;6206271;22;20509;-87
2021/07/16 10:39:55;;;;;;;11.25;6.13;;;21.30;99.90;;;23.49;64.40;101120.53;6220091;23;20488;-87
2021/07/16 10:42:30;;;;;;;21.10;6.00;;;21.50;99.90;;;23.87;62.59;101138.16;6219862;23;20001;-87
2021/07/16 10:45:07;;;;;;;14.15;5.50;;;21.70;99.90;;;23.63;63.15;101128.81;6196302;22;20084;-87
2021/07/16 10:47:42;;;;;;;13.88;5.95;;;21.70;99.90;;;23.49;64.60;101140.50;6253188;23;20075;-84
2021/07/16 10:50:37;;;;;;;19.17;5.95;;;21.50;99.90;;;23.31;63.99;101139.97;6227162;23;20036;-86
2021/07/16 10:53:08;;;;;;;17.45;5.50;;;21.40;99.90;;;23.17;64.50;101145.91;6223944;23;20012;-86
2021/07/16 10:55:36;;;;;;;15.18;5.90;;;21.20;99.90;;;22.97;65.85;101140.13;6249928;22;20012;-85
2021/07/16 10:58:43;;;;;;;13.77;5.60;;;21.00;99.90;;;22.76;66.23;101140.47;6251178;23;20387;-87
2021/07/16 11:01:14;;;;;;;13.38;5.57;;;20.90;99.90;;;22.63;65.31;101142.25;6227037;23;20023;-87
2021/07/16 11:03:50;;;;;;;17.63;5.70;;;20.80;99.90;;;22.57;66.60;101139.06;6249814;23;20087;-86
2021/07/16 11:06:20;;;;;;;15.70;5.82;;;20.80;99.90;;;22.88;67.35;101141.91;6252039;22;20120;-84
2021/07/16 11:08:47;;;;;;;12.73;5.20;;;20.90;99.90;;;22.74;66.63;101150.66;6250736;23;20007;-86
2021/07/16 11:11:43;;;;;;;17.23;5.63;;;20.90;99.90;;;22.56;66.84;101145.22;6250777;23;20004;-85
2021/07/16 11:14:22;;;;;;;17.70;5.93;;;20.80;99.90;;;22.35;68.04;101149.13;6222343;23;20008;-87
2021/07/16 11:16:49;;;;;;;11.90;6.13;;;20.50;99.90;;;22.05;69.31;101155.63;6224368;23;20062;-87
2021/07/16 11:19:22;;;;;;;18.85;7.00;;;20.30;99.90;;;21.82;71.16;101151.81;6224216;23;20263;-88
2021/07/16 11:21:49;;;;;;;17.15;6.35;;;20.10;99.90;;;21.64;71.58;101142.66;6225418;23;20008;-87
2021/07/16 11:24:25;;;;;;;16.58;6.80;;;19.90;99.90;;;21.73;71.08;101146.63;6226123;23;20014;-87
2021/07/16 11:27:17;;;;;;;17.48;6.63;;;20.00;99.90;;;22.00;69.17;101143.91;6226859;23;20094;-88
2021/07/16 11:29:49;;;;;;;19.30;7.68;;;20.10;99.90;;;22.21;69.67;101148.53;6228006;23;20090;-87
2021/07/16 11:32:27;;;;;;;15.85;6.65;;;20.30;99.90;;;22.65;68.61;101156.88;6266520;22;20007;-85
2021/07/16 11:35:01;;;;;;;21.73;7.05;;;20.60;99.90;;;22.85;68.54;101162.72;6238042;23;20064;-88
2021/07/16 11:37:40;;;;;;;16.38;7.53;;;20.80;99.90;;;22.75;68.09;101161.63;6254418;22;20015;-87
2021/07/16 11:40:22;;;;;;;17.00;6.90;;;20.90;99.90;;;22.51;68.94;101159.91;6279020;22;20087;-87
2021/07/16 11:42:59;;;;;;;17.05;7.82;;;20.70;99.90;;;22.13;69.45;101153.50;6255060;22;20004;-86
2021/07/16 11:45:37;;;;;;;18.23;7.93;;;20.40;99.90;;;22.02;70.05;101152.84;6280819;22;20296;-88
2021/07/16 11:48:18;;;;;;;22.02;8.07;;;20.20;99.90;;;22.00;70.86;101147.56;6281138;22;20026;-91
2021/07/16 11:50:48;;;;;;;19.88;7.53;;;20.20;99.90;;;21.89;70.74;101146.88;6281752;22;20039;-87
2021/07/16 11:53:23;;;;;;;15.90;7.90;;;20.10;99.90;;;21.84;70.22;101144.47;6279743;22;20349;-88
2021/07/16 11:55:52;;;;;;;21.88;8.45;;;20.10;99.90;;;21.99;70.09;101145.16;6254139;22;20007;-89
2021/07/16 11:58:19;;;;;;;18.95;8.10;;;20.20;99.90;;;22.04;68.56;101136.13;6286289;22;19999;-88
2021/07/16 12:00:45;;;;;;;12.55;7.45;;;20.20;99.90;;;22.21;69.09;101137.97;6257368;22;20464;-86
2021/07/16 12:03:20;;;;;;;18.98;7.80;;;20.30;99.90;;;22.48;68.30;101135.13;6253079;22;20000;-87
2021/07/16 12:05:57;;;;;;;15.60;7.28;;;20.50;99.90;;;22.65;67.57;101141.81;6278578;22;20027;-86
2021/07/16 12:08:29;;;;;;;16.45;7.88;;;20.60;99.90;;;22.77;66.98;101142.06;6277138;22;20016;-88
2021/07/16 12:11:16;;;;;;;16.33;7.32;;;20.80;99.90;;;22.82;67.83;101158.69;6252442;22;20035;-88
2021/07/16 12:13:42;;;;;;;14.55;6.97;;;20.90;99.90;;;22.69;66.95;101146.28;6292037;22;20003;-88
2021/07/16 12:16:15;;;;;;;16.88;6.85;;;20.90;99.90;;;22.47;67.69;101151.44;6294550;22;20014;-88
2021/07/16 12:18:42;;;;;;;14.93;6.97;;;20.80;99.90;;;22.39;68.53;101152.75;6268205;22;20011;-85
2021/07/16 12:21:16;;;;;;;17.67;6.97;;;20.70;99.90;;;22.40;69.79;101145.03;6287959;22;20014;-88
2021/07/16 12:23:50;;;;;;;12.13;6.15;;;20.60;99.90;;;22.28;67.71;101151.28;6258628;22;20007;-87
2021/07/16 12:26:23;;;;;;;18.13;7.20;;;20.50;99.90;;;22.11;68.73;101167.34;6283116;22;20070;-88
2021/07/16 12:29:07;;;;;;;21.52;7.40;;;20.50;99.90;;;22.20;69.57;101163.97;6284074;22;20004;-89
2021/07/16 12:31:34;;;;;;;19.13;7.32;;;20.50;99.90;;;22.16;68.75;101164.03;6280757;22;20019;-88
2021/07/16 12:34:01;;;;;;;15.45;6.75;;;20.40;99.90;;;22.19;69.18;101163.16;6289103;22;20027;-87
2021/07/16 12:36:32;;;;;;;16.00;6.47;;;20.40;99.90;;;22.31;68.85;101181.75;6261036;22;20137;-86
2021/07/16 12:38:59;;;;;;;12.80;6.55;;;20.40;99.90;;;22.21;68.24;101174.94;6260869;23;20145;-90
2021/07/16 12:41:27;;;;;;;18.08;6.85;;;20.40;99.90;;;22.20;68.50;101181.06;6260027;23;20050;-89
2021/07/16 12:43:54;;;;;;;15.93;5.97;;;20.40;99.90;;;22.20;68.63;101176.16;6253774;23;20004;-89
2021/07/16 12:46:26;;;;;;;13.20;6.30;;;20.30;99.90;;;22.28;68.41;101174.06;6249369;22;20004;-89
2021/07/16 12:48:52;;;;;;;17.60;6.65;;;20.40;99.90;;;22.32;67.69;101158.53;6252180;23;20024;-88
2021/07/16 12:51:21;;;;;;;12.80;6.13;;;20.40;99.90;;;22.42;67.79;101154.75;6251690;23;20020;-88
2021/07/16 12:53:55;;;;;;;16.40;6.03;;;20.50;99.90;;;22.56;67.68;101174.50;6253104;23;20008;-89
2021/07/16 12:56:28;;;;;;;14.82;6.47;;;20.60;99.90;;;22.61;66.87;101170.34;6253966;22;20015;-89
2021/07/16 12:58:59;;;;;;;16.90;6.15;;;20.70;99.90;;;22.75;66.51;101177.91;6251123;23;20011;-88
2021/07/16 13:01:26;;;;;;;12.95;6.18;;;20.80;99.90;;;22.93;67.19;101179.25;6251312;23;20003;-90
2021/07/16 13:03:53;;;;;;;16.33;5.85;;;21.00;99.90;;;23.24;65.12;101167.78;6254105;22;20086;-88
2021/07/16 13:06:31;;;;;;;15.98;5.97;;;21.10;99.90;;;23.32;64.67;101178.63;6249829;22;20011;-89
2021/07/16 13:09:17;;;;;;;19.88;5.85;;;21.20;99.90;;;23.31;64.83;101182.72;6249920;23;20040;-88
2021/07/16 13:11:57;;;;;;;18.13;6.22;;;21.30;99.90;;;23.25;63.71;101183.63;6249876;23;20007;-91
2021/07/16 13:14:28;;;;;;;15.90;5.75;;;21.30;99.90;;;23.13;65.16;101182.22;6273089;22;20008;-88
2021/07/16 13:17:16;;;;;;;13.40;5.20;;;21.20;99.90;;;22.97;65.96;101185.72;6248230;22;20011;-90
2021/07/16 13:20:05;;;;;;;12.80;5.18;;;21.10;99.90;;;22.88;66.00;101188.28;6246600;23;20167;-87
2021/07/16 13:22:52;;;;;;;19.30;5.95;;;21.00;99.90;;;23.01;65.79;101186.47;6244401;23;20015;-91
2021/07/16 13:25:19;;;;;;;13.43;5.40;;;21.10;99.90;;;23.25;66.19;101178.75;6246355;22;20008;-88
2021/07/16 13:27:48;;;;;;;15.95;6.35;;;21.30;99.90;;;23.50;65.93;101192.63;6245435;23;20315;-90
2021/07/16 13:30:18;;;;;;;12.95;5.10;;;21.50;99.90;;;23.83;64.90;101194.44;6249078;23;20083;-89
2021/07/16 13:32:44;;;;;;;19.52;5.68;;;21.70;99.90;;;23.87;62.30;101195.19;6249899;23;20089;-89
2021/07/16 13:35:12;;;;;;;20.05;5.07;;;21.80;99.90;;;23.91;63.46;101190.25;6278004;22;20016;-91
2021/07/16 13:37:43;;;;;;;16.25;5.63;;;21.90;99.90;;;24.00;62.55;101178.25;6259603;22;20012;-90
2021/07/16 13:40:16;;;;;;;16.10;5.95;;;22.00;99.90;;;23.98;62.78;101180.72;6258461;22;20027;-89
2021/07/16 13:42:42;;;;;;;19.25;5.60;;;22.00;99.90;;;23.99;62.68;101180.28;6283074;22;20012;-89
2021/07/16 13:45:09;;;;;;;15.32;5.50;;;22.10;99.90;;;24.12;61.90;101189.03;6252391;22;20011;-87
2021/07/16 13:47:38;;;;;;;18.00;5.55;;;22.10;99.90;;;23.96;62.91;101184.00;6256904;22;20008;-85
2021/07/16 13:50:06;;;;;;;20.90;6.40;;;22.00;99.90;;;23.84;62.81;101190.38;6251853;22;20011;-89
2021/07/16 13:52:33;;;;;;;19.45;6.55;;;21.90;99.90;;;23.40;63.66;101197.28;6253426;22;20097;-87
2021/07/16 13:54:59;;;;;;;19.75;6.45;;;21.70;99.90;;;23.09;65.46;101190.00;6280057;22;20007;-86
2021/07/16 13:57:24;;;;;;;21.95;6.25;;;21.50;99.90;;;22.94;65.61;101192.28;6251885;22;20011;-86
2021/07/16 13:59:50;;;;;;;22.45;6.05;;;21.20;99.90;;;23.06;66.11;101188.00;6258115;22;20014;-88
2021/07/16 14:02:17;;;;;;;20.42;6.40;;;21.30;99.90;;;23.04;64.70;101191.31;6282528;22;20010;-85
2021/07/16 14:04:43;;;;;;;22.00;5.95;;;21.30;99.90;;;23.23;65.49;101183.28;6291465;22;20018;-86
2021/07/16 14:07:09;;;;;;;18.00;4.93;;;21.30;99.90;;;23.22;65.09;101187.34;6260009;22;20008;-86
2021/07/16 14:09:35;;;;;;;12.88;4.93;;;21.30;99.90;;;23.30;65.83;101181.13;6256882;22;20008;-85
2021/07/16 14:12:02;;;;;;;16.67;4.57;;;21.30;99.90;;;23.74;65.43;101179.97;6256647;22;20018;-87
2021/07/16 14:14:28;;;;;;;17.00;5.32;;;21.70;99.90;;;24.24;64.10;101179.03;6252559;22;20003;-88
2021/07/16 14:16:54;;;;;;;21.35;5.80;;;22.10;99.90;;;24.39;62.78;101178.28;6281790;22;20007;-85
2021/07/16 14:19:21;;;;;;;18.02;5.57;;;22.20;99.90;;;24.28;61.53;101177.69;6278134;22;20004;-87
2021/07/16 14:21:47;;;;;;;15.10;4.75;;;22.30;99.90;;;24.33;61.95;101179.22;6250329;22;20023;-89
2021/07/16 14:24:13;;;;;;;15.50;4.97;;;22.30;99.90;;;24.34;61.59;101181.63;6255713;22;20030;-86
2021/07/16 14:26:39;;;;;;;16.00;4.88;;;22.20;99.90;;;24.25;62.16;101175.72;6257331;22;20071;-87
2021/07/16 14:29:05;;;;;;;19.52;5.22;;;22.20;99.90;;;24.24;62.45;101176.16;6284330;22;20004;-89
2021/07/16 14:31:31;;;;;;;15.65;5.40;;;22.20;99.90;;;24.20;62.57;101181.13;6261945;22;20053;-89
2021/07/16 14:33:56;;;;;;;15.85;5.55;;;22.20;99.90;;;24.10;62.97;101172.31;6281748;22;20429;-89
2021/07/16 14:36:22;;;;;;;20.67;5.97;;;22.20;99.90;;;23.97;62.30;101168.50;6280956;22;20016;-87
2021/07/16 14:38:48;;;;;;;16.83;4.40;;;22.10;99.90;;;23.94;62.42;101162.88;6278286;22;20015;-87
2021/07/16 14:41:15;;;;;;;16.02;5.32;;;22.00;99.90;;;24.16;62.66;101175.50;6253337;22;20008;-88
2021/07/16 14:43:45;;;;;;;16.20;5.95;;;22.10;99.90;;;24.08;62.40;101163.38;6251930;22;20004;-88
2021/07/16 14:46:11;;;;;;;16.05;5.55;;;22.10;99.90;;;24.16;62.40;101164.09;6250763;22;20031;-86
2021/07/16 14:48:37;;;;;;;12.52;5.15;;;22.10;99.90;;;24.23;61.30;101163.13;6279348;22;20012;-86
2021/07/16 14:51:04;;;;;;;17.00;4.78;;;22.20;99.90;;;24.33;61.70;101162.91;6283057;22;20056;-89
2021/07/16 14:53:32;;;;;;;18.20;5.15;;;22.40;99.90;;;24.33;61.28;101156.41;6278804;22;20008;-87
2021/07/16 14:55:58;;;;;;;14.73;5.40;;;22.40;99.90;;;24.65;61.41;101173.63;6252688;22;20018;-85
2021/07/16 14:58:24;;;;;;;19.10;5.70;;;22.60;99.90;;;24.69;60.83;101174.38;6251994;22;20008;-89
2021/07/16 15:00:50;;;;;;;11.98;5.03;;;22.60;99.90;;;24.50;61.16;101175.97;6277894;22;20098;-87
2021/07/16 15:03:15;;;;;;;21.23;5.68;;;22.60;99.90;;;24.50;60.13;101173.13;6256007;22;20004;-88
2021/07/16 15:05:44;;;;;;;12.20;5.55;;;22.60;99.90;;;24.54;60.94;101173.06;6282842;22;20020;-89
2021/07/16 15:08:10;;;;;;;16.23;5.78;;;22.50;99.90;;;24.36;60.75;101172.66;6280886;22;20090;-88
2021/07/16 15:10:36;;;;;;;22.40;7.28;;;22.50;99.90;;;24.02;61.71;101175.75;6254212;22;19995;-87
2021/07/16 15:13:02;;;;;;;17.45;6.10;;;22.20;99.90;;;23.65;64.23;101173.22;6280182;22;20004;-85
2021/07/16 15:15:28;;;;;;;16.83;5.65;;;22.00;99.90;;;23.52;64.56;101181.59;6257517;22;20007;-86
2021/07/16 15:17:53;;;;;;;16.88;6.32;;;21.80;99.90;;;23.32;65.87;101189.22;6254114;22;20096;-85
2021/07/16 15:20:21;;;;;;;14.35;6.15;;;21.60;99.90;;;23.16;65.29;101187.03;6253692;22;20058;-89
2021/07/16 15:22:49;;;;;;;19.05;6.25;;;21.40;99.90;;;22.90;66.35;101185.00;6281058;22;20394;-88
2021/07/16 15:25:15;;;;;;;15.48;6.00;;;21.30;99.90;;;22.82;66.60;101181.47;6253762;22;20318;-87
2021/07/16 15:27:43;;;;;;;18.15;6.15;;;21.10;99.90;;;22.70;67.58;101170.66;6281755;22;20011;-85
2021/07/16 15:30:13;;;;;;;19.00;6.47;;;21.10;99.90;;;22.73;67.77;101184.06;6254629;22;20379;-87
2021/07/16 15:47:27;;;;;;;21.20;6.55;;;20.90;99.90;;;22.93;67.16;101181.28;6211292;22;20020;-86
2021/07/16 15:49:52;;;;;;;18.58;6.22;;;21.00;99.90;;;22.99;66.23;101168.16;6250002;23;20430;-87
2021/07/16 15:52:18;;;;;;;17.90;6.22;;;21.10;99.90;;;22.97;65.78;101176.34;6223674;23;20008;-90
2021/07/16 15:54:45;;;;;;;13.18;5.65;;;21.10;99.90;;;22.87;66.13;101180.97;6224434;23;20008;-90
2021/07/16 15:57:11;;;;;;;20.13;6.65;;;21.10;99.90;;;23.04;66.36;101179.91;6252353;22;20008;-88
2021/07/16 15:59:38;;;;;;;16.42;5.72;;;21.30;99.90;;;23.02;64.88;101173.03;6254517;22;20004;-89
2021/07/16 16:02:09;;;;;;;18.83;5.65;;;21.20;99.90;;;23.05;65.36;101175.81;6255899;22;20011;-90
2021/07/16 16:04:35;;;;;;;13.55;5.43;;;21.20;99.90;;;23.04;65.57;101173.41;6255826;22;20007;-89
2021/07/16 16:07:05;;;;;;;13.48;5.50;;;21.20;99.90;;;23.06;65.59;101168.06;6252378;22;20012;-87
2021/07/16 16:09:34;;;;;;;19.05;6.00;;;21.20;99.90;;;22.96;65.64;101169.84;6278329;22;20010;-86
2021/07/16 16:12:00;;;;;;;13.20;5.53;;;21.20;99.90;;;22.90;66.32;101170.75;6251177;22;20082;-86
2021/07/16 16:14:26;;;;;;;13.70;6.00;;;21.20;99.90;;;22.80;66.90;101161.13;6251892;22;20008;-86
2021/07/16 16:16:52;;;;;;;14.18;5.57;;;21.10;99.90;;;22.63;67.17;101164.22;6251854;22;20015;-88
2021/07/16 16:19:20;;;;;;;14.98;6.03;;;21.00;99.90;;;22.60;68.34;101172.38;6278665;22;20071;-87
2021/07/16 16:21:45;;;;;;;19.45;6.20;;;20.90;99.90;;;22.46;68.53;101175.44;6279378;22;20360;-88
2021/07/16 16:24:12;;;;;;;15.10;6.38;;;20.80;99.90;;;22.33;68.95;101176.41;6284411;22;20053;-84
2021/07/16 16:26:37;;;;;;;11.68;5.47;;;20.70;99.90;;;22.39;68.83;101172.69;6251224;22;20000;-86
2021/07/16 16:29:03;;;;;;;15.10;5.60;;;20.70;99.90;;;22.44;67.98;101183.56;6251206;22;20000;-86
2021/07/16 16:31:29;;;;;;;19.65;6.60;;;20.70;99.90;;;22.39;67.57;101174.72;6255958;22;20015;-91
2021/07/16 16:33:56;;;;;;;15.55;5.78;;;20.70;99.90;;;22.37;68.71;101174.34;6283079;22;20074;-86
2021/07/16 16:36:25;;;;;;;16.27;5.32;;;20.60;99.90;;;22.41;68.45;101186.50;6254495;22;20331;-87
2021/07/16 16:38:51;;;;;;;17.10;5.88;;;20.60;99.90;;;22.34;68.83;101176.00;6252690;22;20014;-86
2021/07/16 16:41:17;;;;;;;13.15;5.32;;;20.60;99.90;;;22.32;68.58;101180.50;6278653;22;20337;-85
2021/07/16 16:43:44;;;;;;;16.63;6.38;;;20.50;99.90;;;22.14;68.17;101182.75;6280561;22;20010;-85
2021/07/16 16:46:10;;;;;;;18.90;5.93;;;20.50;99.90;;;22.17;68.62;101179.88;6282839;22;20003;-88
2021/07/16 16:48:36;;;;;;;18.92;6.00;;;20.50;99.90;;;22.12;68.57;101182.38;6278987;22;20065;-88
2021/07/16 16:51:02;;;;;;;15.20;5.60;;;20.40;99.90;;;22.04;69.28;101188.16;6281481;22;20007;-85
2021/07/16 16:53:40;;;;;;;14.95;6.00;;;20.40;99.90;;;21.97;69.47;101185.38;6252595;22;20496;-88
2021/07/16 16:56:07;;;;;;;12.18;5.22;;;20.30;99.90;;;21.96;70.82;101189.44;6279544;22;20012;-87
2021/07/16 16:58:34;;;;;;;15.73;5.38;;;20.30;99.90;;;21.89;71.02;101186.69;6284766;22;20043;-86
2021/07/16 17:01:02;;;;;;;17.35;5.97;;;20.20;99.90;;;21.79;71.06;101187.59;6263165;22;20029;-88
2021/07/16 17:03:28;;;;;;;16.13;5.10;;;20.10;99.90;;;21.74;71.69;101188.03;6259428;22;20382;-86
2021/07/16 17:05:54;;;;;;;14.98;5.55;;;20.10;99.90;;;21.75;71.71;101186.81;6285865;22;20021;-87
2021/07/16 17:08:21;;;;;;;17.17;6.18;;;20.10;99.90;;;21.77;71.71;101192.09;6264597;22;20008;-88
2021/07/16 17:10:49;;;;;;;13.23;5.85;;;20.10;99.90;;;21.78;71.87;101205.88;6265704;22;20027;-88
2021/07/16 17:13:16;;;;;;;23.70;6.32;;;20.00;99.90;;;21.60;71.97;101193.06;6292191;22;20031;-88
2021/07/16 17:15:44;;;;;;;15.38;6.15;;;20.00;99.90;;;21.65;71.82;101204.78;6296135;22;20024;-88
2021/07/16 17:18:11;;;;;;;16.95;5.35;;;20.00;99.90;;;21.63;72.39;101200.75;6260279;22;20015;-88
2021/07/16 17:20:37;;;;;;;16.02;5.57;;;20.00;99.90;;;21.62;72.62;101205.63;6258243;22;20026;-87
2021/07/16 17:23:06;;;;;;;11.55;4.75;;;20.00;99.90;;;21.65;72.12;101207.63;6263710;22;19999;-87
2021/07/16 17:25:37;;;;;;;15.98;5.78;;;20.00;99.90;;;21.63;71.98;101198.72;6266189;22;20067;-86
2021/07/16 17:28:06;;;;;;;15.05;5.43;;;20.00;99.90;;;21.62;71.52;101197.09;6292717;22;20035;-87
2021/07/16 17:30:34;;;;;;;16.25;5.40;;;20.00;99.90;;;21.63;71.53;101195.88;6262419;22;20007;-87
2021/07/16 17:33:01;;;;;;;13.10;4.65;;;20.00;99.90;;;21.64;70.87;101197.47;6258047;22;20402;-90
2021/07/16 17:35:27;;;;;;;19.77;5.00;;;20.00;99.90;;;21.62;71.60;101197.09;6283155;22;20342;-88
2021/07/16 17:37:53;;;;;;;10.65;5.22;;;20.00;99.90;;;21.66;71.50;101195.03;6279430;22;20023;-87
2021/07/16 17:40:28;;;;;;;17.23;6.00;;;20.00;99.90;;;21.62;72.11;101201.97;6280915;22;20011;-88
2021/07/16 17:42:59;;;;;;;17.08;5.78;;;20.00;99.90;;;21.51;72.08;101202.06;6252615;22;20010;-88
2021/07/16 17:45:32;;;;;;;18.52;5.20;;;19.90;99.90;;;21.46;72.54;101203.31;6251450;22;20003;-87
2021/07/16 17:48:01;;;;;;;15.82;5.13;;;19.90;99.90;;;21.47;73.19;101210.63;6278744;22;20011;-86
2021/07/16 17:50:32;;;;;;;12.38;5.25;;;19.80;99.90;;;21.42;73.74;101213.09;6278451;22;20007;-88
2021/07/16 17:52:59;;;;;;;12.75;5.40;;;19.80;99.90;;;21.39;73.89;101203.38;6280664;22;20004;-83
2021/07/16 17:55:26;;;;;;;17.67;5.55;;;19.70;99.90;;;21.34;73.98;101201.00;6255710;22;20018;-86
2021/07/16 17:57:53;;;;;;;18.00;6.05;;;19.70;99.90;;;21.34;72.79;101206.69;6251069;22;20008;-85
2021/07/16 18:00:27;;;;;;;15.98;5.70;;;19.70;99.90;;;21.30;73.28;101210.75;6277656;22;19999;-87
2021/07/16 18:02:53;;;;;;;15.60;6.28;;;19.70;99.90;;;21.34;73.49;101214.41;6278802;22;20010;-87
2021/07/16 18:05:22;;;;;;;16.65;5.93;;;19.70;99.90;;;21.27;73.44;101220.94;6251682;22;20007;-86
2021/07/16 18:07:48;;;;;;;16.08;6.40;;;19.70;99.90;;;21.26;73.52;101225.00;6278745;22;20007;-86
2021/07/16 18:10:19;;;;;;;16.85;5.35;;;19.60;99.90;;;21.25;73.56;101214.88;6250314;22;20329;-85
2021/07/16 18:12:47;;;;;;;11.55;5.45;;;19.60;99.90;;;21.24;73.77;101218.94;6250214;22;20077;-86
2021/07/16 18:15:16;;;;;;;17.98;5.97;;;19.70;99.90;;;21.18;73.80;101214.09;6250370;22;20008;-86
2021/07/16 18:17:42;;;;;;;12.63;5.43;;;19.60;99.90;;;21.20;73.53;101223.00;6277752;22;20337;-87
2021/07/16 18:20:11;;;;;;;13.57;5.55;;;19.60;99.90;;;21.15;73.17;101229.16;6250544;22;20011;-89
2021/07/16 18:22:37;;;;;;;14.20;5.68;;;19.60;99.90;;;21.13;73.67;101232.41;6277793;22;19996;-87
2021/07/16 18:25:05;;;;;;;16.15;5.55;;;19.50;99.90;;;21.10;73.25;101236.06;6250120;22;20000;-86
2021/07/16 18:27:32;;;;;;;14.90;5.20;;;19.50;99.90;;;21.06;73.74;101232.44;6277770;22;20010;-88
2021/07/16 18:29:58;;;;;;;12.57;5.35;;;19.50;99.90;;;21.08;73.72;101234.84;6278092;22;20315;-85
2021/07/16 18:32:24;;;;;;;16.08;6.43;;;19.50;99.90;;;21.07;73.81;101239.72;6277205;22;20081;-87
2021/07/16 18:34:50;;;;;;;11.82;5.85;;;19.50;99.90;;;21.11;74.31;101249.06;6251817;22;20422;-86
2021/07/16 18:37:17;;;;;;;14.63;5.63;;;19.50;99.90;;;21.11;74.44;101248.25;6252035;22;20012;-87
2021/07/16 18:39:43;;;;;;;15.65;5.28;;;19.50;99.90;;;21.11;74.51;101246.22;6252117;22;20011;-86
2021/07/16 18:42:11;;;;;;;10.85;4.85;;;19.50;99.90;;;21.15;74.84;101249.03;6252648;22;20038;-87
2021/07/16 18:44:37;;;;;;;12.35;5.85;;;19.50;99.90;;;21.15;74.44;101249.03;6251606;22;20073;-86
2021/07/16 18:47:04;;;;;;;11.85;5.72;;;19.50;99.90;;;21.08;74.36;101244.16;6279898;22;20008;-86
2021/07/16 18:49:31;;;;;;;14.20;5.28;;;19.50;99.90;;;21.03;75.17;101255.97;6251919;22;20027;-88
2021/07/16 18:51:56;;;;;;;13.02;5.60;;;19.40;99.90;;;21.00;75.24;101253.94;6252288;22;20008;-88
2021/07/16 18:54:24;;;;;;;13.13;5.72;;;19.40;99.90;;;20.96;75.34;101259.69;6253245;22;20092;-86
2021/07/16 18:56:50;;;;;;;16.80;6.32;;;19.30;99.90;;;20.93;75.52;101260.47;6279933;22;20003;-88
2021/07/16 18:59:17;;;;;;;12.85;4.88;;;19.30;99.90;;;20.91;75.91;101254.41;6279495;22;20003;-86
2021/07/16 19:01:44;;;;;;;14.35;5.70;;;19.40;99.90;;;20.87;76.10;101252.84;6278137;22;20081;-85
2021/07/16 19:04:10;;;;;;;14.00;6.03;;;19.30;99.90;;;20.84;75.41;101257.28;6251151;22;20003;-86
2021/07/16 19:06:36;;;;;;;14.57;5.20;;;19.20;99.90;;;20.78;75.29;101264.63;6280140;22;20007;-85
2021/07/16 19:09:03;;;;;;;16.42;5.97;;;19.20;99.90;;;20.78;75.33;101264.63;6279726;22;20000;-87
2021/07/16 19:11:29;;;;;;;19.33;6.03;;;19.10;99.90;;;20.73;75.58;101269.94;6254167;22;20014;-86
2021/07/16 19:13:55;;;;;;;15.48;6.15;;;19.10;99.90;;;20.70;75.78;101265.06;6249235;22;20479;-87
2021/07/16 19:16:21;;;;;;;13.10;5.60;;;19.10;99.90;;;20.65;76.29;101257.78;6276640;22;20330;-87
2021/07/16 19:18:47;;;;;;;13.55;6.43;;;19.10;99.90;;;20.64;77.26;101273.22;6250162;22;20015;-85
2021/07/16 19:21:13;;;;;;;18.17;5.82;;;19.10;99.90;;;20.53;76.90;101275.28;6249529;22;20004;-87
2021/07/16 19:23:40;;;;;;;15.57;5.57;;;19.00;99.90;;;20.57;77.05;101286.63;6275784;22;20003;-85
2021/07/16 19:26:09;;;;;;;11.95;5.45;;;19.00;99.90;;;20.52;77.18;101285.81;6277778;22;20015;-84
2021/07/16 19:28:36;;;;;;;16.15;6.47;;;19.00;99.90;;;20.51;77.30;101291.91;6249450;22;20107;-86
2021/07/16 19:31:02;;;;;;;16.63;6.40;;;18.90;99.90;;;20.48;77.35;101299.19;6275781;22;20015;-85
2021/07/16 19:33:34;;;;;;;16.52;6.03;;;18.90;99.90;;;20.43;77.40;101305.31;6277540;22;20053;-86
2021/07/16 19:36:00;;;;;;;14.77;5.95;;;18.90;99.90;;;20.39;77.55;101301.66;6250817;22;20345;-84
2021/07/16 19:38:26;;;;;;;20.20;5.93;;;18.90;99.90;;;20.33;77.88;101297.63;6252001;22;20007;-87
2021/07/16 19:40:52;;;;;;;13.45;5.35;;;18.80;99.90;;;20.37;77.88;101297.63;6280351;22;20004;-88
2021/07/16 19:43:18;;;;;;;18.48;5.85;;;18.80;99.90;;;20.34;78.30;101292.78;6280600;22;20011;-88
2021/07/16 19:45:45;;;;;;;13.70;5.72;;;18.80;99.90;;;20.35;78.58;101302.91;6254372;22;20004;-87
2021/07/16 19:48:11;;;;;;;14.07;6.32;;;18.80;99.90;;;20.34;78.71;101295.59;6282619;22;20148;-89
2021/07/16 19:50:37;;;;;;;20.73;6.28;;;18.70;99.90;;;20.33;78.86;101296.81;6254523;22;20008;-88
2021/07/16 19:53:04;;;;;;;10.57;5.68;;;18.80;99.90;;;20.31;78.97;101305.75;6268121;22;20007;-87
2021/07/16 19:55:30;;;;;;;13.90;6.05;;;18.70;99.90;;;20.29;79.48;101308.16;6293492;22;20022;-85
2021/07/16 19:57:56;;;;;;;14.90;5.72;;;18.70;99.90;;;20.26;79.68;101306.16;6253325;22;20035;-86
2021/07/16 20:00:24;;;;;;;18.77;6.78;;;18.70;99.90;;;20.22;80.06;101313.03;6253479;22;20014;-86
2021/07/16 20:02:50;;;;;;;14.95;5.95;;;18.70;99.90;;;20.21;80.02;101314.25;6254975;22;20046;-86
2021/07/16 20:05:22;;;;;;;13.95;5.88;;;18.60;99.90;;;20.17;79.96;101311.41;6281518;22;20008;-85
2021/07/16 20:07:48;;;;;;;17.83;6.47;;;18.60;99.90;;;20.15;79.30;101318.72;6281720;22;20003;-85
2021/07/16 20:10:16;;;;;;;17.15;6.07;;;18.60;99.90;;;20.09;79.46;101318.31;6279715;22;20014;-86
2021/07/16 20:12:42;;;;;;;18.38;6.40;;;18.60;99.90;;;20.13;79.89;101326.84;6251151;22;20091;-85
2021/07/16 20:15:10;;;;;;;19.25;6.53;;;18.60;99.90;;;20.12;79.92;101331.69;6251164;22;20007;-85
2021/07/16 20:17:39;;;;;;;13.45;5.75;;;18.50;99.90;;;20.12;79.70;101330.88;6252051;22;20090;-86
2021/07/16 20:20:12;;;;;;;18.23;6.75;;;18.60;99.90;;;20.13;79.57;101335.34;6251766;22;20003;-87
2021/07/16 20:22:38;;;;;;;11.15;6.00;;;18.60;99.90;;;20.09;79.73;101326.03;6277988;22;20056;-86
2021/07/16 20:25:07;;;;;;;21.38;6.75;;;18.50;99.90;;;20.08;80.11;101335.72;6278716;22;20360;-87
2021/07/16 20:27:35;;;;;;;18.23;7.15;;;18.50;99.90;;;20.06;80.32;101329.66;6279106;22;20015;-88
2021/07/16 20:30:01;;;;;;;18.90;7.30;;;18.50;99.90;;;20.07;80.28;101334.91;6279112;22;20004;-86
2021/07/16 20:32:32;;;;;;;18.15;7.43;;;18.50;99.90;;;20.03;79.87;101328.47;6278387;22;20008;-84
2021/07/16 20:34:57;;;;;;;12.50;6.38;;;18.50;99.90;;;20.06;79.78;101343.84;6277415;22;20030;-87
2021/07/16 20:37:26;;;;;;;21.13;7.40;;;18.50;99.90;;;20.07;79.61;101334.13;6277937;22;20004;-88
2021/07/16 20:39:54;;;;;;;14.73;7.40;;;18.50;99.90;;;20.04;79.77;101335.72;6249972;22;20027;-86
2021/07/16 20:42:21;;;;;;;15.23;7.25;;;18.50;99.90;;;20.00;79.95;101324.38;6278735;22;20000;-86
2021/07/16 20:44:46;;;;;;;19.88;7.22;;;18.50;99.90;;;20.02;79.95;101338.16;6279199;22;20060;-85
2021/07/16 20:47:12;;;;;;;23.08;7.10;;;18.50;99.90;;;19.98;80.03;101334.53;6245891;22;20024;-86
2021/07/16 20:49:41;;;;;;;18.83;7.20;;;18.50;99.90;;;20.01;80.20;101339.38;6220896;23;20464;-85
2021/07/16 20:52:07;;;;;;;18.60;7.32;;;18.40;99.90;;;19.95;80.08;101343.84;6248014;23;20460;-87
2021/07/16 20:54:33;;;;;;;28.27;8.25;;;18.40;99.90;;;19.96;80.05;101346.28;6220242;23;20008;-86
2021/07/16 20:56:59;;;;;;;17.30;6.18;;;18.40;99.90;;;19.98;80.14;101346.69;6273016;22;20053;-86
2021/07/16 20:59:27;;;;;;;15.90;6.40;;;18.40;99.90;;;19.92;80.47;101339.78;6250717;22;20004;-85
2021/07/16 21:01:53;;;;;;;18.98;7.05;;;18.40;99.90;;;19.92;80.45;101341.81;6277775;22;20275;-85
2021/07/16 21:04:19;;;;;;;14.68;7.40;;;18.40;99.90;;;19.90;80.51;101350.75;6275792;22;20007;-87